Time;durP1;ratioP1;P1;durP2;ratioP2;P2;SDS_P1;SDS_P2;PMS_P1;PMS_P2;Temp;Humidity;BMP_temperature;BMP_pressure;BME280_temperature;BME280_humidity;BME280_pressure;Samples;Min_cycle;Max_cycle;Signal;HPM_P1;HPM_P2
2021/07/15 00:01:34;;;;;;;60.65;38.47;;;19.80;95.70;;;;;;5082747;28;20159;-76
2021/07/15 00:04:00;;;;;;;60.38;39.50;;;19.80;95.70;;;;;;5082139;28;20035;-76
2021/07/15 00:06:26;;;;;;;63.10;40.83;;;19.80;95.70;;;;;;5084367;28;20024;-75
2021/07/15 00:08:56;;;;;;;64.90;41.65;;;19.80;95.70;;;;;;5080260;28;20059;-75
2021/07/15 00:11:26;;;;;;;66.07;41.67;;;19.80;95.70;;;;;;5080349;28;20497;-75
2021/07/15 00:13:53;;;;;;;76.35;43.85;;;19.80;95.70;;;;;;5084458;28;20038;-75
2021/07/15 00:16:19;;;;;;;78.45;42.40;;;19.80;95.80;;;;;;5084315;28;20036;-75
2021/07/15 00:18:47;;;;;;;58.60;39.22;;;19.70;95.80;;;;;;5061309;28;20051;-76
2021/07/15 00:21:16;;;;;;;60.53;41.13;;;19.70;95.80;;;;;;5077313;28;20027;-76
2021/07/15 00:23:42;;;;;;;57.78;38.90;;;19.70;95.80;;;;;;5082049;28;20032;-76
2021/07/15 00:26:08;;;;;;;66.28;41.38;;;19.70;95.80;;;;;;5078443;28;20550;-75
2021/07/15 00:28:35;;;;;;;59.97;40.15;;;19.70;95.80;;;;;;5080878;28;20032;-76
2021/07/15 00:31:01;;;;;;;63.40;38.40;;;19.80;95.90;;;;;;5080769;28;20039;-75
2021/07/15 00:33:30;;;;;;;57.38;36.67;;;19.70;95.80;;;;;;5079932;28;20032;-75
2021/07/15 00:35:57;;;;;;;59.80;39.38;;;19.70;95.80;;;;;;5081083;28;20063;-75
2021/07/15 00:38:22;;;;;;;75.85;42.28;;;19.80;95.80;;;;;;5079815;28;20131;-75
2021/07/15 00:40:48;;;;;;;54.67;38.00;;;19.70;95.80;;;;;;5079466;28;20107;-75
2021/07/15 00:43:14;;;;;;;54.67;36.55;;;19.80;95.90;;;;;;5079861;28;20365;-75
2021/07/15 00:45:39;;;;;;;54.05;37.35;;;19.80;95.90;;;;;;5081057;28;20419;-76
2021/07/15 00:48:06;;;;;;;56.55;38.70;;;19.80;95.90;;;;;;5083442;28;20032;-75
2021/07/15 00:50:31;;;;;;;57.13;40.53;;;19.70;95.90;;;;;;5078223;28;20166;-76
2021/07/15 00:52:57;;;;;;;50.45;36.08;;;19.80;95.90;;;;;;5079404;28;20111;-76
2021/07/15 00:55:36;;;;;;;49.45;35.60;;;19.70;95.90;;;;;;5082659;28;20036;-75
2021/07/15 00:58:03;;;;;;;50.50;33.92;;;19.70;95.90;;;;;;5083009;28;20036;-75
2021/07/15 01:00:29;;;;;;;71.85;40.00;;;19.70;95.90;;;;;;5081082;28;20074;-76
2021/07/15 01:02:56;;;;;;;57.50;37.50;;;19.70;95.90;;;;;;5061990;28;21589;-76
2021/07/15 01:05:30;;;;;;;60.92;39.42;;;19.70;95.90;;;;;;5078372;28;20481;-76
2021/07/15 01:07:56;;;;;;;54.67;36.38;;;19.70;95.90;;;;;;5078835;28;20103;-75
2021/07/15 01:10:29;;;;;;;51.95;35.60;;;19.70;95.90;;;;;;5065104;28;20115;-75
2021/07/15 01:13:31;;;;;;;48.30;34.85;;;19.70;95.90;;;;;;5078069;28;20478;-76
2021/07/15 01:16:20;;;;;;;59.53;36.97;;;19.70;95.90;;;;;;5077176;28;20029;-76
2021/07/15 01:19:07;;;;;;;51.55;35.20;;;19.70;95.90;;;;;;5080589;28;20031;-75
2021/07/15 01:22:05;;;;;;;49.40;33.17;;;19.70;95.90;;;;;;5078908;28;20466;-76
2021/07/15 01:25:09;;;;;;;47.10;33.45;;;19.70;95.90;;;;;;5082615;28;20608;-76
2021/07/15 01:27:55;;;;;;;48.95;32.33;;;19.70;95.90;;;;;;5077356;28;20115;-75
2021/07/15 01:30:25;;;;;;;47.65;32.85;;;19.70;95.90;;;;;;5080408;28;20035;-75
2021/07/15 01:33:15;;;;;;;46.63;30.33;;;19.70;95.90;;;;;;5083114;28;20767;-76
2021/07/15 01:35:52;;;;;;;38.63;26.90;;;19.70;95.90;;;;;;5083644;28;20016;-76
2021/07/15 01:38:21;;;;;;;43.08;29.52;;;19.70;95.90;;;;;;5082934;28;20040;-75
2021/07/15 01:40:53;;;;;;;45.30;29.90;;;19.70;95.90;;;;;;5087646;28;20051;-76
2021/07/15 01:43:26;;;;;;;39.03;26.67;;;19.70;95.90;;;;;;5084809;28;20025;-75
2021/07/15 01:45:52;;;;;;;36.92;26.45;;;19.70;95.90;;;;;;5091219;28;20028;-76
2021/07/15 01:48:19;;;;;;;39.10;26.23;;;19.70;96.20;;;;;;5087788;28;20078;-75
2021/07/15 01:50:44;;;;;;;33.35;24.23;;;19.70;95.90;;;;;;5081867;28;20034;-75
2021/07/15 01:53:11;;;;;;;39.50;24.65;;;19.70;95.90;;;;;;5085843;28;20036;-76
2021/07/15 01:55:39;;;;;;;36.17;23.52;;;19.70;95.90;;;;;;5084092;28;20366;-76
2021/07/15 01:58:07;;;;;;;26.05;20.00;;;19.70;95.90;;;;;;5080282;28;20033;-75
2021/07/15 02:00:34;;;;;;;35.10;21.17;;;19.70;95.90;;;;;;5082523;28;20051;-75
2021/07/15 02:03:03;;;;;;;27.52;20.50;;;19.70;95.90;;;;;;5082477;28;20103;-75
2021/07/15 02:05:29;;;;;;;24.10;19.27;;;19.70;95.90;;;;;;5084907;28;20082;-75
2021/07/15 02:07:57;;;;;;;24.38;18.00;;;19.60;95.90;;;;;;5083478;28;20505;-75
2021/07/15 02:10:25;;;;;;;21.88;17.05;;;19.70;95.90;;;;;;5081549;28;20036;-75
2021/07/15 02:12:51;;;;;;;23.57;16.27;;;19.70;95.90;;;;;;5082337;28;20020;-75
2021/07/15 02:15:17;;;;;;;22.73;15.77;;;19.60;95.80;;;;;;5087077;28;20028;-75
2021/07/15 02:17:44;;;;;;;22.52;16.42;;;19.70;95.90;;;;;;5065878;28;20587;-75
2021/07/15 02:20:14;;;;;;;21.90;16.17;;;19.60;95.80;;;;;;5083687;28;20040;-75
2021/07/15 02:22:41;;;;;;;21.35;16.00;;;19.60;95.80;;;;;;5079628;28;20020;-75
2021/07/15 02:25:08;;;;;;;24.67;17.15;;;19.60;95.80;;;;;;5083923;28;20023;-75
2021/07/15 02:27:34;;;;;;;37.15;20.38;;;19.60;95.80;;;;;;5081416;28;20045;-75
2021/07/15 02:30:00;;;;;;;28.15;17.85;;;19.60;95.80;;;;;;5076605;28;20037;-75
2021/07/15 02:32:26;;;;;;;32.50;18.38;;;19.60;95.80;;;;;;5074963;28;20035;-75
2021/07/15 02:34:58;;;;;;;26.98;19.08;;;19.60;95.80;;;;;;5078970;28;20043;-75
2021/07/15 02:37:36;;;;;;;26.83;17.50;;;19.60;95.90;;;;;;5083014;28;20381;-76
2021/07/15 02:40:11;;;;;;;34.67;18.50;;;19.60;96.00;;;;;;5084162;28;20139;-75
2021/07/15 02:42:39;;;;;;;21.30;16.30;;;19.50;96.00;;;;;;5073924;28;20087;-76
2021/07/15 02:45:07;;;;;;;27.92;17.20;;;19.50;96.20;;;;;;5074764;28;20060;-76
2021/07/15 02:47:33;;;;;;;26.35;18.13;;;19.50;95.90;;;;;;5073457;28;20032;-76
2021/07/15 02:49:58;;;;;;;29.20;18.85;;;19.50;95.90;;;;;;5073175;28;20043;-75
2021/07/15 02:52:24;;;;;;;27.48;18.63;;;19.50;96.00;;;;;;5072337;28;20078;-75
2021/07/15 02:54:50;;;;;;;26.92;18.30;;;19.50;96.00;;;;;;5073636;28;20059;-75
2021/07/15 02:57:18;;;;;;;22.25;16.02;;;19.50;96.00;;;;;;5074417;28;20024;-76
2021/07/15 02:59:52;;;;;;;28.10;18.15;;;19.50;96.00;;;;;;5074487;28;20107;-75
2021/07/15 03:02:32;;;;;;;26.33;17.65;;;19.50;96.00;;;;;;5080522;28;20485;-76
2021/07/15 03:05:34;;;;;;;22.27;15.52;;;19.50;96.10;;;;;;5074509;28;20017;-75
2021/07/15 03:08:07;;;;;;;45.60;21.75;;;19.50;96.00;;;;;;5074242;28;20108;-76
2021/07/15 03:10:34;;;;;;;25.60;18.92;;;19.50;96.00;;;;;;5074456;28;20021;-75
2021/07/15 03:13:02;;;;;;;24.65;18.70;;;19.50;96.00;;;;;;5090871;28;20032;-75
2021/07/15 03:15:28;;;;;;;26.63;19.90;;;19.50;96.00;;;;;;5094632;28;20031;-75
2021/07/15 03:17:56;;;;;;;26.38;18.75;;;19.50;96.00;;;;;;5082032;28;20034;-74
2021/07/15 03:20:25;;;;;;;26.60;20.35;;;19.50;96.00;;;;;;5092607;28;20040;-75
2021/07/15 03:22:58;;;;;;;28.63;19.00;;;19.50;96.00;;;;;;5092246;28;20028;-75
2021/07/15 03:25:25;;;;;;;28.08;20.63;;;19.50;96.00;;;;;;5074240;28;20043;-75
2021/07/15 03:27:54;;;;;;;36.60;21.58;;;19.50;96.00;;;;;;5073885;28;20128;-75
2021/07/15 03:30:21;;;;;;;26.40;20.35;;;19.50;96.00;;;;;;5072807;28;20557;-75
2021/07/15 03:32:49;;;;;;;27.02;20.30;;;19.50;96.00;;;;;;5078316;28;20034;-75
2021/07/15 03:35:16;;;;;;;26.83;19.50;;;19.50;96.20;;;;;;5092993;28;20024;-76
2021/07/15 03:37:43;;;;;;;29.85;19.80;;;19.50;95.90;;;;;;5073923;28;20028;-75
2021/07/15 03:40:18;;;;;;;27.52;20.90;;;19.50;96.00;;;;;;5072548;28;20393;-75
2021/07/15 03:42:44;;;;;;;31.75;20.08;;;19.50;96.00;;;;;;5057908;28;20064;-75
2021/07/15 03:45:13;;;;;;;27.92;21.33;;;19.50;96.00;;;;;;5072472;28;20078;-75
2021/07/15 03:47:40;;;;;;;25.25;19.77;;;19.50;96.00;;;;;;5074707;28;20036;-76
2021/07/15 03:50:07;;;;;;;27.70;20.20;;;19.50;96.00;;;;;;5072315;28;20044;-75
2021/07/15 03:52:33;;;;;;;27.05;19.73;;;19.50;96.00;;;;;;5066881;28;20035;-75
2021/07/15 03:55:00;;;;;;;32.78;22.17;;;19.50;96.00;;;;;;5076218;28;20032;-75
2021/07/15 03:57:28;;;;;;;27.30;20.52;;;19.50;96.00;;;;;;5074752;28;20040;-75
2021/07/15 03:59:54;;;;;;;30.50;21.45;;;19.50;96.00;;;;;;5073339;28;20024;-75
2021/07/15 04:02:25;;;;;;;35.50;22.00;;;19.50;96.00;;;;;;5078083;28;20020;-75
2021/07/15 04:04:57;;;;;;;33.97;21.60;;;19.50;96.00;;;;;;5089541;28;20485;-75
2021/07/15 04:07:27;;;;;;;34.70;21.95;;;19.50;96.00;;;;;;5071384;28;20098;-75
2021/07/15 04:09:55;;;;;;;29.23;20.73;;;19.50;96.00;;;;;;5093564;28;20019;-75
2021/07/15 04:12:22;;;;;;;31.73;21.65;;;19.50;96.00;;;;;;5072264;28;20061;-75
2021/07/15 04:14:59;;;;;;;31.98;22.92;;;19.50;96.00;;;;;;5073136;28;20040;-75
2021/07/15 04:17:29;;;;;;;39.38;22.77;;;19.50;96.00;;;;;;5077744;28;20119;-75
2021/07/15 04:19:59;;;;;;;35.72;23.35;;;19.50;96.00;;;;;;5085916;28;20024;-76
2021/07/15 04:22:27;;;;;;;30.42;21.10;;;19.50;95.90;;;;;;5073168;28;20484;-75
2021/07/15 04:24:53;;;;;;;30.02;21.25;;;19.50;96.00;;;;;;5073532;28;20142;-75
2021/07/15 04:27:19;;;;;;;29.77;21.77;;;19.50;95.90;;;;;;5088635;28;20127;-75
2021/07/15 04:29:46;;;;;;;29.38;21.20;;;19.50;96.00;;;;;;5079230;28;20126;-75
2021/07/15 04:32:15;;;;;;;31.60;21.48;;;19.50;96.00;;;;;;5088257;28;20029;-75
2021/07/15 04:34:43;;;;;;;31.58;21.42;;;19.50;95.90;;;;;;5073023;28;20056;-75
2021/07/15 04:37:09;;;;;;;31.23;21.75;;;19.50;95.90;;;;;;5081648;28;20440;-75
2021/07/15 04:39:36;;;;;;;44.05;24.67;;;19.50;95.90;;;;;;5073829;28;20036;-75
2021/07/15 04:42:03;;;;;;;35.00;22.27;;;19.50;95.90;;;;;;5073891;28;20373;-75
2021/07/15 04:44:31;;;;;;;30.92;20.00;;;19.50;95.90;;;;;;5072820;28;20021;-75
2021/07/15 04:46:58;;;;;;;32.95;22.30;;;19.40;96.20;;;;;;5090212;28;20021;-75
2021/07/15 04:49:24;;;;;;;25.73;18.52;;;19.40;95.90;;;;;;5092882;28;20071;-75
2021/07/15 04:51:51;;;;;;;30.52;21.38;;;19.40;95.90;;;;;;5071206;28;20390;-75
2021/07/15 04:54:17;;;;;;;38.60;21.85;;;19.50;96.00;;;;;;5071710;28;20071;-75
2021/07/15 04:56:43;;;;;;;26.33;19.38;;;19.50;95.90;;;;;;5064403;28;20504;-75
2021/07/15 04:59:10;;;;;;;27.02;20.30;;;19.40;95.90;;;;;;5079278;28;20393;-76
2021/07/15 05:01:36;;;;;;;31.67;19.45;;;19.40;95.90;;;;;;5072584;28;20032;-75
2021/07/15 05:04:02;;;;;;;28.65;19.00;;;19.40;96.10;;;;;;5072685;28;20031;-75
2021/07/15 05:06:28;;;;;;;26.15;17.98;;;19.40;95.90;;;;;;5076380;28;20040;-76
2021/07/15 05:08:54;;;;;;;24.38;16.95;;;19.40;95.90;;;;;;5076939;28;20029;-74
2021/07/15 05:11:19;;;;;;;25.92;16.92;;;19.40;95.90;;;;;;5066436;28;20025;-75
2021/07/15 05:13:45;;;;;;;31.38;19.45;;;19.40;95.90;;;;;;5089720;28;20036;-75
2021/07/15 05:16:11;;;;;;;29.75;18.50;;;19.40;95.90;;;;;;5078626;28;20040;-75
2021/07/15 05:18:36;;;;;;;36.00;19.42;;;19.40;95.90;;;;;;5081849;28;20032;-75
2021/07/15 05:21:03;;;;;;;29.50;19.83;;;19.40;95.90;;;;;;5075535;28;20052;-75
2021/07/15 05:23:28;;;;;;;29.08;17.38;;;19.40;95.90;;;;;;5082562;28;20440;-76
2021/07/15 05:25:56;;;;;;;28.15;16.58;;;19.40;96.20;;;;;;5075941;28;20024;-75
2021/07/15 05:28:21;;;;;;;26.00;17.25;;;19.40;95.90;;;;;;5075239;28;20040;-75
2021/07/15 05:30:47;;;;;;;22.58;15.13;;;19.40;95.90;;;;;;5075007;28;20029;-75
2021/07/15 05:33:13;;;;;;;27.05;16.48;;;19.40;95.90;;;;;;5077213;28;20040;-75
2021/07/15 05:35:40;;;;;;;20.60;14.27;;;19.40;95.80;;;;;;5076259;28;20082;-75
2021/07/15 05:38:07;;;;;;;19.40;14.35;;;19.40;95.80;;;;;;5077202;28;20024;-75
2021/07/15 05:40:33;;;;;;;16.75;13.15;;;19.40;95.80;;;;;;5093585;28;20020;-75
2021/07/15 05:42:58;;;;;;;23.23;13.75;;;19.40;95.80;;;;;;5078275;28;20035;-75
2021/07/15 05:45:24;;;;;;;18.88;13.18;;;19.30;95.80;;;;;;5074792;28;20035;-75
2021/07/15 05:47:50;;;;;;;16.02;11.65;;;19.30;95.80;;;;;;5077825;28;20489;-75
2021/07/15 05:50:16;;;;;;;15.75;11.63;;;19.30;95.80;;;;;;5074513;28;20120;-75
2021/07/15 05:52:41;;;;;;;17.27;11.68;;;19.30;95.80;;;;;;5083490;28;20416;-75
2021/07/15 05:55:07;;;;;;;17.35;11.93;;;19.30;95.80;;;;;;5094906;28;20373;-75
2021/07/15 05:57:33;;;;;;;17.33;11.77;;;19.30;95.80;;;;;;5074183;28;20037;-75
2021/07/15 06:00:00;;;;;;;14.10;10.98;;;19.30;95.80;;;;;;5089584;28;20036;-75
2021/07/15 06:02:25;;;;;;;15.07;10.57;;;19.30;95.80;;;;;;5086878;28;20727;-75
2021/07/15 06:04:51;;;;;;;20.63;11.55;;;19.30;95.80;;;;;;5081239;28;20032;-75
2021/07/15 06:07:17;;;;;;;12.23;9.68;;;19.30;95.80;;;;;;5076009;28;20024;-75
2021/07/15 06:09:42;;;;;;;19.05;11.55;;;19.30;95.80;;;;;;5079998;28;20028;-75
2021/07/15 06:12:08;;;;;;;17.13;11.80;;;19.30;95.80;;;;;;5091056;28;20055;-75
2021/07/15 06:14:34;;;;;;;17.33;12.45;;;19.30;95.80;;;;;;5076697;28;20423;-75
2021/07/15 06:17:00;;;;;;;20.25;13.13;;;19.40;96.10;;;;;;5075165;28;20028;-75
2021/07/15 06:19:26;;;;;;;15.40;11.57;;;19.40;95.80;;;;;;5084812;28;20050;-75
2021/07/15 06:21:51;;;;;;;16.38;11.75;;;19.40;95.80;;;;;;5087237;28;20439;-75
2021/07/15 06:24:17;;;;;;;16.70;10.82;;;19.40;95.80;;;;;;5079306;28;20127;-74
2021/07/15 06:26:44;;;;;;;14.18;11.18;;;19.40;95.70;;;;;;5083790;28;20051;-75
2021/07/15 06:29:10;;;;;;;15.63;10.50;;;19.40;95.70;;;;;;5055255;28;20025;-75
2021/07/15 06:31:37;;;;;;;15.30;9.45;;;19.40;95.70;;;;;;5061343;28;20492;-75
2021/07/15 06:34:03;;;;;;;12.77;7.93;;;19.50;95.70;;;;;;5078687;28;20021;-75
2021/07/15 06:36:32;;;;;;;10.32;8.10;;;19.50;96.00;;;;;;5074903;28;20116;-75
2021/07/15 06:38:58;;;;;;;10.82;8.32;;;19.50;95.70;;;;;;5071652;28;20033;-75
2021/07/15 06:41:24;;;;;;;9.85;7.45;;;19.50;95.70;;;;;;5074947;28;20028;-75
2021/07/15 06:43:50;;;;;;;8.20;6.68;;;19.50;95.70;;;;;;5074898;28;20021;-75
2021/07/15 06:46:16;;;;;;;7.72;6.80;;;19.50;95.70;;;;;;5074316;28;20024;-75
2021/07/15 06:48:42;;;;;;;7.90;7.10;;;19.50;95.70;;;;;;5079874;28;20044;-75
2021/07/15 06:51:08;;;;;;;8.07;6.80;;;19.50;95.60;;;;;;5078155;28;20032;-75
2021/07/15 06:53:34;;;;;;;7.40;6.60;;;19.60;95.60;;;;;;5092256;28;20039;-75
2021/07/15 06:55:59;;;;;;;11.10;6.75;;;19.60;95.60;;;;;;5090443;28;20028;-75
2021/07/15 06:58:26;;;;;;;8.75;6.35;;;19.60;95.60;;;;;;5085408;28;21401;-75
2021/07/15 07:00:55;;;;;;;7.45;6.30;;;19.60;95.60;;;;;;5083208;28;20557;-75
2021/07/15 07:03:20;;;;;;;7.07;6.25;;;19.60;95.60;;;;;;5081184;28;20214;-75
2021/07/15 07:05:46;;;;;;;7.60;6.80;;;19.60;95.60;;;;;;5088553;28;20083;-75
2021/07/15 07:08:12;;;;;;;7.80;6.35;;;19.60;95.60;;;;;;5074600;28;20035;-75
2021/07/15 07:10:37;;;;;;;8.57;6.85;;;19.60;95.60;;;;;;5074129;28;20047;-75
2021/07/15 07:13:03;;;;;;;10.27;6.38;;;19.60;95.60;;;;;;5074565;28;20419;-75
2021/07/15 07:15:29;;;;;;;13.48;7.40;;;19.60;95.60;;;;;;5073043;28;20094;-75
2021/07/15 07:17:54;;;;;;;9.60;7.47;;;19.60;95.60;;;;;;5083084;28;20473;-75
2021/07/15 07:20:20;;;;;;;12.80;8.20;;;19.60;95.60;;;;;;5080537;28;20051;-75
2021/07/15 07:22:47;;;;;;;9.25;7.78;;;19.60;95.60;;;;;;5094409;28;20020;-76
2021/07/15 07:25:14;;;;;;;12.05;8.20;;;19.70;95.70;;;;;;5076639;28;20047;-75
2021/07/15 07:27:40;;;;;;;9.70;8.40;;;19.70;95.70;;;;;;5089128;28;20036;-75
2021/07/15 07:30:08;;;;;;;15.23;10.57;;;19.70;95.60;;;;;;5094077;28;20032;-75
2021/07/15 07:32:34;;;;;;;10.65;8.60;;;19.70;95.60;;;;;;5079570;28;20020;-75
2021/07/15 07:35:00;;;;;;;12.15;9.75;;;19.70;95.70;;;;;;5072568;28;20044;-75
2021/07/15 07:37:28;;;;;;;13.45;9.38;;;19.90;95.70;;;;;;5084448;28;20040;-75
2021/07/15 07:39:54;;;;;;;10.52;9.00;;;19.90;95.60;;;;;;5086451;28;20060;-75
2021/07/15 07:42:20;;;;;;;9.52;8.35;;;19.90;95.50;;;;;;5088994;28;20024;-75
2021/07/15 07:44:45;;;;;;;9.68;8.57;;;20.00;95.50;;;;;;5092806;28;20020;-75
2021/07/15 07:47:11;;;;;;;12.05;8.93;;;20.00;95.40;;;;;;5082920;28;20029;-76
2021/07/15 07:49:37;;;;;;;10.75;8.85;;;19.90;95.40;;;;;;5073640;28;20436;-75
2021/07/15 07:52:03;;;;;;;14.43;10.70;;;20.00;95.40;;;;;;5101235;28;20175;-75
2021/07/15 07:54:29;;;;;;;12.20;8.80;;;20.00;95.40;;;;;;5092544;28;20032;-75
2021/07/15 07:56:54;;;;;;;12.75;9.70;;;20.00;95.30;;;;;;5092442;28;20093;-75
2021/07/15 07:59:20;;;;;;;11.77;9.48;;;19.90;95.30;;;;;;5066627;28;20036;-75
2021/07/15 08:01:46;;;;;;;10.40;9.05;;;19.90;95.60;;;;;;5072719;28;20028;-76
2021/07/15 08:04:12;;;;;;;10.68;8.73;;;19.90;95.40;;;;;;5073534;28;20052;-75
2021/07/15 08:06:41;;;;;;;11.38;9.50;;;19.90;95.30;;;;;;5072664;28;20508;-75
2021/07/15 08:09:09;;;;;;;9.45;7.93;;;19.90;95.40;;;;;;5073216;28;20037;-75
2021/07/15 08:11:35;;;;;;;11.73;9.38;;;19.90;95.40;;;;;;5088599;28;20031;-75
2021/07/15 08:14:00;;;;;;;13.82;10.45;;;19.90;95.40;;;;;;5086983;28;20036;-76
2021/07/15 08:16:26;;;;;;;13.07;9.82;;;19.90;95.50;;;;;;5088394;28;20504;-75
2021/07/15 08:18:52;;;;;;;13.95;10.32;;;19.80;95.40;;;;;;5093453;28;20039;-75
2021/07/15 08:21:24;;;;;;;20.10;11.95;;;19.90;95.50;;;;;;5076973;28;20053;-75
2021/07/15 08:23:51;;;;;;;15.45;11.40;;;19.90;95.40;;;;;;5075353;28;20043;-75
2021/07/15 08:26:17;;;;;;;17.75;11.95;;;19.90;95.40;;;;;;5071971;28;20040;-75
2021/07/15 08:28:43;;;;;;;14.75;12.05;;;19.90;95.40;;;;;;5073037;28;20071;-76
2021/07/15 08:31:08;;;;;;;17.33;12.63;;;19.90;95.40;;;;;;5071612;28;20056;-75
2021/07/15 08:33:34;;;;;;;16.48;12.23;;;20.00;95.40;;;;;;5073821;28;20055;-75
2021/07/15 08:36:00;;;;;;;13.98;12.07;;;20.00;95.60;;;;;;5073629;28;20560;-75
2021/07/15 08:38:26;;;;;;;19.00;12.38;;;20.10;95.30;;;;;;5073844;28;20032;-75
2021/07/15 08:40:51;;;;;;;16.27;10.95;;;20.10;95.20;;;;;;5075731;28;20036;-75
2021/07/15 08:43:18;;;;;;;17.42;13.10;;;20.10;95.10;;;;;;5080043;28;20103;-75
2021/07/15 08:45:45;;;;;;;16.48;13.07;;;20.10;95.10;;;;;;5081388;28;20028;-75
2021/07/15 08:48:12;;;;;;;17.40;12.68;;;20.10;95.10;;;;;;5072345;28;20017;-77
2021/07/15 08:50:39;;;;;;;18.05;12.80;;;20.10;95.20;;;;;;5073006;28;20032;-77
2021/07/15 08:53:05;;;;;;;18.27;13.77;;;20.10;95.10;;;;;;5072368;28;20078;-77
2021/07/15 08:58:29;;;;;;;;;;;20.00;95.10;;;;;;5072220;28;20041;-77
2021/07/15 09:00:55;;;;;;;21.88;13.35;;;19.90;95.10;;;;;;5073118;28;20253;-77
2021/07/15 09:03:20;;;;;;;19.55;14.35;;;19.90;95.20;;;;;;5071793;28;20044;-77
2021/07/15 09:05:46;;;;;;;19.42;15.23;;;19.90;95.30;;;;;;5071705;28;20037;-77
2021/07/15 09:08:13;;;;;;;22.25;14.65;;;19.90;95.40;;;;;;5071875;28;20016;-77
2021/07/15 09:10:40;;;;;;;19.42;14.00;;;19.90;95.40;;;;;;5072730;28;20025;-77
2021/07/15 09:13:06;;;;;;;20.02;15.05;;;20.00;95.30;;;;;;5072766;28;20017;-77
2021/07/15 09:15:32;;;;;;;21.45;14.75;;;19.90;95.30;;;;;;5072860;28;20496;-77
2021/07/15 09:17:59;;;;;;;28.38;14.95;;;19.90;95.60;;;;;;5071218;28;20051;-77
2021/07/15 09:20:27;;;;;;;21.45;14.75;;;20.00;95.30;;;;;;5072314;28;20021;-77
2021/07/15 09:23:01;;;;;;;18.35;14.80;;;20.00;95.20;;;;;;5072622;28;20394;-77
2021/07/15 09:25:29;;;;;;;21.67;14.63;;;19.90;95.10;;;;;;5072724;28;20051;-77
2021/07/15 09:27:55;;;;;;;23.05;14.93;;;19.90;95.10;;;;;;5072521;28;20045;-77
2021/07/15 09:30:21;;;;;;;21.98;15.38;;;19.80;95.10;;;;;;5072837;28;20046;-77
2021/07/15 09:32:58;;;;;;;23.98;15.65;;;19.80;95.20;;;;;;5072514;28;20056;-77
2021/07/15 09:35:31;;;;;;;18.25;13.77;;;19.80;95.20;;;;;;5071532;28;20123;-77
2021/07/15 09:38:11;;;;;;;18.70;12.88;;;19.70;95.30;;;;;;5072667;28;20025;-77
2021/07/15 09:40:57;;;;;;;16.95;12.52;;;19.80;95.40;;;;;;5072704;28;20032;-77
2021/07/15 09:43:29;;;;;;;19.73;13.43;;;19.80;95.40;;;;;;5072147;28;20101;-77
2021/07/15 09:45:58;;;;;;;20.27;13.63;;;19.70;95.40;;;;;;5072413;28;20480;-77
2021/07/15 09:48:30;;;;;;;15.57;13.02;;;19.80;95.40;;;;;;5072431;28;20028;-77
2021/07/15 09:50:59;;;;;;;18.83;13.50;;;19.80;95.40;;;;;;5074011;28;20032;-77
2021/07/15 09:53:29;;;;;;;20.48;12.68;;;19.80;95.30;;;;;;5075949;28;20468;-77
2021/07/15 09:56:12;;;;;;;18.80;13.85;;;19.80;95.30;;;;;;5075241;28;20032;-77
2021/07/15 09:58:39;;;;;;;20.58;14.07;;;19.80;95.30;;;;;;5074269;28;20111;-77
2021/07/15 10:01:08;;;;;;;19.45;14.48;;;19.80;95.20;;;;;;5075856;28;20052;-77
2021/07/15 10:03:38;;;;;;;22.77;15.05;;;19.80;95.30;;;;;;5074668;28;20029;-77
2021/07/15 10:06:05;;;;;;;27.98;15.68;;;19.80;95.20;;;;;;5075658;28;20090;-77
2021/07/15 10:08:36;;;;;;;23.17;15.90;;;19.90;95.30;;;;;;5073963;28;20198;-77
2021/07/15 10:11:23;;;;;;;24.02;15.77;;;19.90;95.20;;;;;;5074546;28;20504;-77
2021/07/15 10:14:08;;;;;;;24.25;15.88;;;19.80;95.20;;;;;;5075766;28;20036;-77
2021/07/15 10:16:42;;;;;;;23.88;14.65;;;19.80;95.20;;;;;;5075532;28;20040;-77
2021/07/15 10:19:18;;;;;;;22.35;15.73;;;19.80;95.20;;;;;;5058542;28;20520;-77
2021/07/15 10:21:44;;;;;;;23.92;13.60;;;19.80;95.30;;;;;;5075477;28;20112;-77
2021/07/15 10:24:21;;;;;;;16.42;13.07;;;19.80;95.20;;;;;;5075610;28;20446;-77
2021/07/15 10:26:49;;;;;;;22.27;14.85;;;19.80;95.20;;;;;;5073846;28;20111;-77
2021/07/15 10:29:16;;;;;;;21.13;13.80;;;19.90;95.20;;;;;;5075148;28;20029;-77
2021/07/15 10:31:43;;;;;;;18.90;14.18;;;19.80;95.10;;;;;;5075538;28;20056;-77
2021/07/15 10:34:10;;;;;;;21.33;13.52;;;19.90;95.20;;;;;;5074272;28;20032;-77
2021/07/15 10:36:37;;;;;;;20.20;13.43;;;19.90;95.30;;;;;;5074340;28;20029;-77
2021/07/15 10:39:11;;;;;;;18.40;13.60;;;19.90;95.30;;;;;;5075145;28;20037;-77
2021/07/15 10:41:38;;;;;;;18.45;12.57;;;20.00;95.30;;;;;;5075416;28;20436;-77
2021/07/15 10:44:06;;;;;;;16.35;11.85;;;20.10;95.20;;;;;;5074253;28;20021;-77
2021/07/15 10:46:32;;;;;;;15.43;12.70;;;20.20;95.10;;;;;;5075423;28;20063;-77
2021/07/15 10:48:58;;;;;;;13.75;11.25;;;20.20;95.00;;;;;;5074819;28;20259;-77
2021/07/15 10:51:23;;;;;;;18.17;12.02;;;20.30;95.20;;;;;;5073489;28;20473;-77
2021/07/15 10:53:49;;;;;;;20.80;13.07;;;20.30;94.80;;;;;;5074893;28;20039;-77
2021/07/15 10:56:20;;;;;;;17.85;13.10;;;20.30;94.80;;;;;;5075266;28;20060;-77
2021/07/15 10:58:51;;;;;;;16.13;12.30;;;20.30;94.80;;;;;;5077478;28;20154;-77
2021/07/15 11:01:32;;;;;;;18.02;13.65;;;20.40;94.80;;;;;;5075119;28;20032;-77
2021/07/15 11:04:29;;;;;;;14.30;12.25;;;20.40;94.80;;;;;;5073635;28;20488;-77
2021/07/15 11:06:57;;;;;;;15.52;12.30;;;20.40;94.70;;;;;;5049568;28;20159;-77
2021/07/15 11:09:36;;;;;;;19.10;13.23;;;20.40;94.70;;;;;;5067005;28;20024;-77
2021/07/15 11:12:04;;;;;;;16.80;13.32;;;20.50;94.80;;;;;;5074369;28;20377;-77
2021/07/15 11:14:49;;;;;;;18.42;13.68;;;20.60;94.70;;;;;;5076750;28;20028;-77
2021/07/15 11:17:21;;;;;;;17.17;13.02;;;20.60;94.60;;;;;;5074221;28;20029;-77
2021/07/15 11:20:02;;;;;;;20.35;13.75;;;20.60;94.50;;;;;;5074291;28;20048;-77
2021/07/15 11:22:37;;;;;;;23.00;13.50;;;20.60;94.40;;;;;;5073043;28;20056;-77
2021/07/15 11:25:39;;;;;;;16.95;11.93;;;20.60;94.40;;;;;;5073887;28;20021;-76
2021/07/15 11:28:11;;;;;;;21.88;12.85;;;20.50;94.30;;;;;;4992614;28;20048;-77
2021/07/15 11:30:36;;;;;;;18.75;12.23;;;20.50;94.40;;;;;;5070641;28;20040;-77
2021/07/15 11:33:23;;;;;;;22.20;13.75;;;20.40;94.30;;;;;;5093135;28;20028;-77
2021/07/15 11:36:09;;;;;;;23.17;14.95;;;20.40;94.40;;;;;;5091022;28;20453;-76
2021/07/15 11:38:54;;;;;;;25.05;15.15;;;20.30;94.30;;;;;;5077142;28;20137;-76
2021/07/15 11:41:20;;;;;;;24.38;15.77;;;20.30;94.40;;;;;;5073424;28;20021;-77
2021/07/15 11:43:50;;;;;;;29.92;16.73;;;20.30;94.50;;;;;;5074042;28;20035;-76
2021/07/15 11:46:20;;;;;;;25.90;15.43;;;20.20;94.30;;;;;;5083821;28;20482;-77
2021/07/15 11:49:06;;;;;;;26.65;16.83;;;20.20;94.40;;;;;;5087898;28;20560;-77
2021/07/15 11:51:38;;;;;;;29.02;17.90;;;20.20;94.40;;;;;;5063392;28;20040;-77
2021/07/15 11:54:18;;;;;;;27.05;18.08;;;20.20;94.50;;;;;;5073676;28;20039;-77
2021/07/15 11:57:12;;;;;;;29.38;17.85;;;20.20;94.60;;;;;;5073556;28;20044;-77
2021/07/15 11:59:44;;;;;;;28.77;18.77;;;20.20;94.60;;;;;;5063977;28;20427;-77
2021/07/15 12:02:24;;;;;;;32.13;17.58;;;20.20;94.60;;;;;;5073317;28;20382;-77
2021/07/15 12:05:14;;;;;;;24.48;15.80;;;20.10;94.50;;;;;;5072978;28;20025;-76
2021/07/15 12:07:50;;;;;;;19.25;14.32;;;20.10;94.60;;;;;;5072089;28;20031;-77
2021/07/15 12:10:23;;;;;;;24.70;15.30;;;20.10;94.50;;;;;;5073416;28;20511;-77
2021/07/15 12:12:49;;;;;;;22.45;14.52;;;20.10;94.50;;;;;;5073110;28;20032;-77
2021/07/15 12:15:19;;;;;;;23.58;15.65;;;20.20;94.50;;;;;;5072819;28;20033;-77
2021/07/15 12:17:46;;;;;;;24.98;14.73;;;20.10;94.50;;;;;;5072755;28;20025;-77
2021/07/15 12:20:13;;;;;;;19.23;13.15;;;20.10;94.40;;;;;;5071890;28;20029;-77
2021/07/15 12:22:48;;;;;;;19.30;13.23;;;20.00;94.50;;;;;;5072901;28;20035;-77
2021/07/15 12:25:23;;;;;;;15.90;11.77;;;20.00;94.50;;;;;;5072518;28;20448;-77
2021/07/15 12:27:51;;;;;;;18.33;11.55;;;20.00;94.60;;;;;;5071763;28;20094;-77
2021/07/15 12:30:19;;;;;;;20.40;12.75;;;20.00;94.60;;;;;;5074604;28;20087;-76
2021/07/15 12:32:53;;;;;;;15.13;12.40;;;20.00;94.60;;;;;;5074228;28;20052;-76
2021/07/15 12:35:19;;;;;;;20.70;12.55;;;20.00;94.70;;;;;;5072870;28;20107;-77
2021/07/15 12:37:44;;;;;;;21.02;12.73;;;20.00;94.60;;;;;;5071817;28;20039;-77
2021/07/15 12:40:10;;;;;;;16.85;12.38;;;20.00;94.60;;;;;;5073112;28;20481;-76
2021/07/15 12:42:36;;;;;;;19.45;11.88;;;19.90;94.60;;;;;;5071822;28;20027;-76